Time;durP1;ratioP1;P1;durP2;ratioP2;P2;SDS_P1;SDS_P2;PMS_P1;PMS_P2;Temp;Humidity;BMP_temperature;BMP_pressure;BME280_temperature;BME280_humidity;BME280_pressure;Samples;Min_cycle;Max_cycle;Signal;HPM_P1;HPM_P2
2022/09/03 00:00:47;;;;;;;1.63;1.47;;;;;;;15.75;100.00;95932.38;5023587;28;20299;-77
2022/09/03 00:03:20;;;;;;;1.60;1.50;;;;;;;15.72;100.00;95926.69;5009432;28;20217;-77
2022/09/03 00:05:51;;;;;;;1.60;1.30;;;;;;;15.67;100.00;95924.78;5009995;28;20223;-77
2022/09/03 00:08:27;;;;;;;1.43;1.33;;;;;;;15.63;100.00;95939.22;5001001;28;20203;-77
2022/09/03 00:10:59;;;;;;;2.67;1.63;;;;;;;15.59;100.00;95938.91;5023661;28;20253;-77
2022/09/03 00:13:32;;;;;;;3.03;1.63;;;;;;;15.60;100.00;95929.69;5007463;28;20249;-77
2022/09/03 00:16:03;;;;;;;2.30;1.60;;;;;;;15.65;100.00;95916.06;5008884;28;20370;-77
2022/09/03 00:18:34;;;;;;;1.97;1.77;;;;;;;15.63;100.00;95917.44;5019713;28;20211;-77
2022/09/03 00:21:07;;;;;;;2.20;2.00;;;;;;;15.61;100.00;95914.97;5005798;28;20218;-77
2022/09/03 00:23:38;;;;;;;10.33;2.20;;;;;;;15.61;100.00;95931.31;5003022;28;20216;-77
2022/09/03 00:26:18;;;;;;;1.90;1.70;;;;;;;15.55;100.00;95932.41;5022788;28;20216;-77
2022/09/03 00:28:52;;;;;;;1.60;1.50;;;;;;;15.45;100.00;95945.97;5004683;28;20199;-77
2022/09/03 00:31:26;;;;;;;2.67;1.60;;;;;;;15.44;100.00;95966.09;5018614;28;20203;-77
2022/09/03 00:33:56;;;;;;;3.50;2.40;;;;;;;15.41;100.00;95982.94;5002330;28;20219;-77
2022/09/03 00:36:28;;;;;;;2.50;2.20;;;;;;;15.39;100.00;95987.88;5007064;28;20195;-77
2022/09/03 00:38:57;;;;;;;3.00;2.60;;;;;;;15.28;100.00;96002.50;5020860;28;20263;-77
2022/09/03 00:41:33;;;;;;;3.77;2.43;;;;;;;15.24;100.00;96001.41;5006751;28;20211;-77
2022/09/03 00:44:27;;;;;;;2.63;2.30;;;;;;;15.24;100.00;96001.41;5021426;28;20214;-77
2022/09/03 00:47:02;;;;;;;3.03;1.90;;;;;;;15.28;100.00;95991.63;5020921;28;20211;-77
2022/09/03 00:49:42;;;;;;;3.00;1.83;;;;;;;15.35;100.00;95998.44;5000874;28;20326;-77
2022/09/03 00:52:20;;;;;;;4.63;1.90;;;;;;;15.43;100.00;95988.94;5003999;28;20235;-77
2022/09/03 00:54:58;;;;;;;2.20;2.00;;;;;;;15.44;100.00;95993.31;5006419;28;20203;-77
2022/09/03 00:57:44;;;;;;;2.53;1.80;;;;;;;15.44;100.00;96001.47;5024350;28;20223;-77
2022/09/03 01:00:14;;;;;;;2.00;1.70;;;;;;;15.48;100.00;96002.56;5001048;28;20295;-77
2022/09/03 01:02:52;;;;;;;3.83;2.00;;;;;;;15.45;100.00;96003.09;5019229;28;20210;-76
2022/09/03 01:05:38;;;;;;;5.47;1.90;;;;;;;15.41;100.00;95996.56;5017114;28;20219;-77
2022/09/03 01:08:19;;;;;;;3.33;1.60;;;;;;;15.39;100.00;95999.56;5021893;28;20239;-77
2022/09/03 01:11:01;;;;;;;2.10;1.67;;;;;;;15.41;100.00;96000.09;5027684;28;20690;-76
2022/09/03 01:13:37;;;;;;;3.80;1.80;;;;;;;15.40;100.00;96000.34;4997360;28;20224;-77
2022/09/03 01:16:14;;;;;;;1.57;1.47;;;;;;;15.44;100.00;95996.03;5005393;28;20199;-76
2022/09/03 01:18:53;;;;;;;2.07;1.50;;;;;;;15.51;100.00;96002.00;5020640;28;20230;-76
2022/09/03 01:21:45;;;;;;;2.10;1.57;;;;;;;15.59;100.00;96000.69;5018602;28;20211;-77
2022/09/03 01:24:37;;;;;;;2.23;1.60;;;;;;;15.63;100.00;96004.53;5002891;28;20215;-76
2022/09/03 01:27:21;;;;;;;3.27;1.60;;;;;;;15.65;100.00;96007.81;5005318;28;20289;-77
2022/09/03 01:29:59;;;;;;;1.70;1.60;;;;;;;15.66;100.00;96010.22;5002632;28;20206;-77
2022/09/03 01:32:36;;;;;;;3.17;1.87;;;;;;;15.63;100.00;96009.97;5017458;28;20241;-76
2022/09/03 01:35:14;;;;;;;2.10;1.70;;;;;;;15.63;100.00;96010.78;5001316;28;20204;-77
2022/09/03 01:37:52;;;;;;;3.87;1.70;;;;;;;15.61;100.00;96017.56;5019674;28;20219;-77
2022/09/03 01:40:32;;;;;;;2.10;1.57;;;;;;;15.45;100.00;96025.69;5021010;28;20204;-76
2022/09/03 01:43:13;;;;;;;1.93;1.80;;;;;;;15.46;100.00;96026.50;5003984;28;20215;-76
2022/09/03 01:45:51;;;;;;;1.90;1.70;;;;;;;15.46;100.00;96037.38;5003204;28;20241;-77
2022/09/03 01:48:38;;;;;;;1.70;1.50;;;;;;;15.39;100.00;96023.22;5003043;28;20214;-76
2022/09/03 01:51:18;;;;;;;2.97;2.00;;;;;;;15.32;100.00;96025.34;5018063;28;20231;-76
2022/09/03 01:54:05;;;;;;;2.50;1.80;;;;;;;15.37;100.00;96026.22;5015177;28;20224;-76
2022/09/03 01:56:46;;;;;;;1.83;1.70;;;;;;;15.44;100.00;96023.22;5004190;28;20223;-77
2022/09/03 01:59:20;;;;;;;2.10;1.90;;;;;;;15.38;100.00;96019.69;5020432;28;20227;-77
2022/09/03 02:01:54;;;;;;;1.80;1.53;;;;;;;15.46;100.00;96021.06;5016184;28;20208;-77
2022/09/03 02:04:24;;;;;;;1.63;1.53;;;;;;;15.50;100.00;96022.97;5005717;28;20213;-76
2022/09/03 02:06:52;;;;;;;2.70;1.60;;;;;;;15.55;100.00;96024.94;5024883;28;20208;-76
2022/09/03 02:09:20;;;;;;;3.40;1.60;;;;;;;15.59;100.00;96020.56;5027588;28;20207;-77
2022/09/03 02:11:55;;;;;;;2.13;1.67;;;;;;;15.62;100.00;96024.66;5004658;28;20307;-77
2022/09/03 02:14:22;;;;;;;3.63;1.70;;;;;;;15.59;100.00;96039.63;5019994;28;20218;-76
2022/09/03 02:16:50;;;;;;;2.33;1.60;;;;;;;15.58;100.00;96024.38;5018634;28;20196;-77
2022/09/03 02:19:18;;;;;;;1.90;1.60;;;;;;;15.53;100.00;96035.22;5021954;28;20207;-77
2022/09/03 02:21:50;;;;;;;3.90;1.83;;;;;;;15.54;100.00;96034.16;5006841;28;20207;-77
2022/09/03 02:24:17;;;;;;;2.00;1.70;;;;;;;15.57;100.00;96028.19;4995747;28;20207;-76
2022/09/03 02:26:45;;;;;;;2.83;1.63;;;;;;;15.61;100.00;96029.28;5004292;28;20207;-76
2022/09/03 02:29:13;;;;;;;2.20;1.63;;;;;;;15.51;100.00;96024.59;5005135;28;20207;-77
2022/09/03 02:31:40;;;;;;;3.00;1.67;;;;;;;15.49;100.00;96020.50;4999961;28;20204;-76
2022/09/03 02:34:08;;;;;;;3.17;1.60;;;;;;;15.50;100.00;96003.91;5001935;28;20242;-77
2022/09/03 02:36:39;;;;;;;2.47;1.50;;;;;;;15.59;100.00;95997.97;5004983;28;20199;-77
2022/09/03 02:39:07;;;;;;;3.07;1.80;;;;;;;15.63;100.00;96005.34;5009575;28;20231;-77
2022/09/03 02:41:34;;;;;;;1.60;1.50;;;;;;;15.64;100.00;96004.25;5023862;28;20207;-77
2022/09/03 02:44:06;;;;;;;2.40;1.63;;;;;;;15.65;100.00;96002.34;5002185;28;20212;-76
2022/09/03 02:46:38;;;;;;;1.93;1.73;;;;;;;15.66;100.00;96010.22;5021353;28;20207;-77
2022/09/03 02:49:06;;;;;;;2.00;1.80;;;;;;;15.66;100.00;96004.78;5021002;28;20207;-77
2022/09/03 02:51:36;;;;;;;4.03;1.90;;;;;;;15.65;100.00;96005.88;5021415;28;20203;-77
2022/09/03 02:54:04;;;;;;;2.30;1.67;;;;;;;15.71;100.00;96015.69;5019203;28;20223;-76
2022/09/03 02:56:31;;;;;;;3.27;1.80;;;;;;;15.71;100.00;96002.09;5013968;28;20228;-76
2022/09/03 02:58:59;;;;;;;1.93;1.70;;;;;;;15.71;100.00;96002.09;5025293;28;20263;-77
2022/09/03 03:01:26;;;;;;;2.27;1.70;;;;;;;15.67;100.00;95984.66;5020747;28;20226;-77
2022/09/03 03:03:54;;;;;;;6.33;1.80;;;;;;;15.65;100.00;95986.81;5020463;28;20254;-77
2022/09/03 03:06:21;;;;;;;2.37;1.70;;;;;;;15.67;100.00;95983.84;5008227;28;20199;-77
2022/09/03 03:08:54;;;;;;;2.53;1.70;;;;;;;15.61;100.00;95980.28;5022838;28;20238;-77
2022/09/03 03:11:23;;;;;;;3.73;1.80;;;;;;;15.66;100.00;95983.00;5023598;28;20219;-76
2022/09/03 03:13:50;;;;;;;3.63;1.80;;;;;;;15.59;100.00;95996.06;5006820;28;20223;-77
2022/09/03 03:16:18;;;;;;;2.20;2.00;;;;;;;15.56;100.00;95999.34;5024608;28;20218;-76
2022/09/03 03:18:45;;;;;;;3.43;1.83;;;;;;;15.62;100.00;96003.72;5007313;28;20234;-77
2022/09/03 03:21:15;;;;;;;2.17;1.90;;;;;;;15.50;100.00;96005.81;5005575;28;20215;-76
2022/09/03 03:23:42;;;;;;;4.43;1.83;;;;;;;15.47;100.00;95996.31;5019970;28;20222;-76
2022/09/03 03:26:14;;;;;;;3.97;2.00;;;;;;;15.47;100.00;96000.94;5030919;28;20216;-77
2022/09/03 03:28:41;;;;;;;3.10;1.90;;;;;;;15.49;100.00;96015.06;5022182;28;20226;-76
2022/09/03 03:31:10;;;;;;;4.50;1.90;;;;;;;15.50;100.00;96008.53;5006546;28;20211;-76
2022/09/03 03:33:38;;;;;;;2.17;1.97;;;;;;;15.47;100.00;96023.53;5021188;28;20314;-76
2022/09/03 03:36:06;;;;;;;2.10;1.90;;;;;;;15.46;100.00;96021.06;5003085;28;20204;-76
2022/09/03 03:38:34;;;;;;;2.00;1.80;;;;;;;15.47;100.00;96022.69;5018682;28;20226;-76
2022/09/03 03:41:07;;;;;;;2.07;1.80;;;;;;;15.47;100.00;96023.53;5021366;28;20223;-76
2022/09/03 03:43:36;;;;;;;2.20;1.90;;;;;;;15.50;100.00;96027.59;5020706;28;20206;-76
2022/09/03 03:46:04;;;;;;;2.83;1.80;;;;;;;15.47;100.00;96028.16;4997804;28;20200;-76
2022/09/03 03:48:31;;;;;;;2.80;2.00;;;;;;;15.47;100.00;96033.59;5017949;28;20223;-76
2022/09/03 03:51:00;;;;;;;4.70;2.00;;;;;;;15.50;100.00;96036.56;5025471;28;20215;-76
2022/09/03 03:53:27;;;;;;;2.43;1.93;;;;;;;15.46;100.00;96037.38;5018979;28;20228;-77
2022/09/03 03:55:55;;;;;;;4.33;1.90;;;;;;;15.46;100.00;96032.75;5011137;28;20207;-77
2022/09/03 03:58:23;;;;;;;1.67;1.53;;;;;;;15.49;100.00;96034.13;5023453;28;20210;-77
2022/09/03 04:00:52;;;;;;;2.33;1.67;;;;;;;15.49;100.00;96037.66;5019791;28;20207;-77
2022/09/03 04:03:19;;;;;;;3.60;1.90;;;;;;;15.50;100.00;96043.91;5017396;28;20211;-76
2022/09/03 04:05:55;;;;;;;2.13;1.80;;;;;;;15.51;100.00;96042.84;5004218;28;20211;-76
2022/09/03 04:08:22;;;;;;;3.07;1.87;;;;;;;15.49;100.00;96043.09;5020179;28;20303;-77
2022/09/03 04:10:49;;;;;;;4.03;2.13;;;;;;;15.46;100.00;96038.22;5020185;28;20200;-77
2022/09/03 04:13:16;;;;;;;2.20;1.80;;;;;;;15.43;100.00;96041.44;5014504;28;20219;-76
2022/09/03 04:15:43;;;;;;;5.80;2.07;;;;;;;15.42;100.00;96041.72;5015160;28;20210;-76
2022/09/03 04:18:13;;;;;;;2.67;1.87;;;;;;;15.42;100.00;96041.72;5007591;28;20203;-77
2022/09/03 04:20:40;;;;;;;2.13;1.83;;;;;;;15.41;100.00;96050.97;5004505;28;20211;-76
2022/09/03 04:23:07;;;;;;;4.77;2.10;;;;;;;15.40;100.00;96047.41;5009109;28;20297;-77
2022/09/03 04:25:34;;;;;;;2.20;2.00;;;;;;;15.44;100.00;96040.38;5023317;28;20206;-77
2022/09/03 04:28:03;;;;;;;3.40;1.90;;;;;;;15.39;100.00;96036.84;5021660;28;20203;-76
2022/09/03 04:30:30;;;;;;;2.97;2.10;;;;;;;15.38;100.00;96037.91;5019717;28;20196;-76
2022/09/03 04:32:58;;;;;;;2.23;1.60;;;;;;;15.39;100.00;96043.09;5004514;28;20199;-77
2022/09/03 04:35:33;;;;;;;4.23;1.70;;;;;;;15.45;100.00;96043.91;5002794;28;20203;-76
2022/09/03 04:38:00;;;;;;;2.27;1.77;;;;;;;15.43;100.00;96055.06;5003341;28;20242;-76
2022/09/03 04:40:27;;;;;;;3.23;2.40;;;;;;;15.45;100.00;96046.63;5022154;28;20200;-76
2022/09/03 04:42:59;;;;;;;3.67;2.13;;;;;;;15.45;100.00;96049.34;5007699;28;20212;-76
2022/09/03 04:45:27;;;;;;;4.27;2.10;;;;;;;15.45;100.00;96054.78;5008082;28;20238;-76
2022/09/03 04:47:58;;;;;;;3.50;1.93;;;;;;;15.44;100.00;96045.00;5007293;28;20210;-76
2022/09/03 04:50:27;;;;;;;2.33;2.13;;;;;;;15.48;100.00;96049.63;5006398;28;20215;-76
2022/09/03 04:53:01;;;;;;;2.50;2.20;;;;;;;15.48;100.00;96046.91;5005662;28;20226;-76
2022/09/03 04:55:28;;;;;;;2.13;1.87;;;;;;;15.49;100.00;96047.72;5013148;28;20202;-76
2022/09/03 04:57:55;;;;;;;1.90;1.80;;;;;;;15.43;100.00;96044.19;5003564;28;20230;-76
2022/09/03 05:00:23;;;;;;;1.73;1.60;;;;;;;15.42;100.00;96036.28;5009907;28;20223;-77
2022/09/03 05:02:50;;;;;;;2.20;1.90;;;;;;;15.47;100.00;96039.84;5018320;28;20222;-76
2022/09/03 05:05:18;;;;;;;3.70;1.87;;;;;;;15.51;100.00;96046.38;5032339;28;20207;-75
2022/09/03 05:07:46;;;;;;;2.33;1.83;;;;;;;15.58;100.00;96045.31;5001787;28;20226;-75
2022/09/03 05:10:19;;;;;;;3.07;1.90;;;;;;;15.61;100.00;96048.34;5022866;28;20306;-74
2022/09/03 05:12:48;;;;;;;4.13;1.97;;;;;;;15.60;100.00;96060.31;5003845;28;20211;-74
2022/09/03 05:15:16;;;;;;;4.07;1.97;;;;;;;15.62;100.00;96060.84;5002373;28;20234;-75
2022/09/03 05:17:43;;;;;;;2.00;1.80;;;;;;;15.59;100.00;96061.38;5002271;28;20200;-74
2022/09/03 05:20:10;;;;;;;3.40;1.70;;;;;;;15.53;100.00;96076.03;5018883;28;20215;-75
2022/09/03 05:22:38;;;;;;;2.90;1.93;;;;;;;15.53;100.00;96076.03;5006372;28;20207;-74
2022/09/03 05:25:07;;;;;;;3.13;2.33;;;;;;;15.58;100.00;96084.25;5006977;28;20195;-74
2022/09/03 05:27:34;;;;;;;4.77;2.07;;;;;;;15.59;100.00;96080.44;5002839;28;20208;-74
2022/09/03 05:30:01;;;;;;;5.40;2.10;;;;;;;15.62;100.00;96085.34;5022512;28;20203;-74
2022/09/03 05:32:31;;;;;;;2.47;2.03;;;;;;;15.64;100.00;96095.97;5000666;28;20212;-74
2022/09/03 05:34:58;;;;;;;2.30;2.10;;;;;;;15.69;100.00;96110.41;5011459;28;20302;-74
2022/09/03 05:37:26;;;;;;;4.23;2.30;;;;;;;15.73;100.00;96108.78;5024585;28;20191;-74
2022/09/03 05:39:53;;;;;;;4.43;2.20;;;;;;;15.73;100.00;96110.69;5004512;28;20239;-76
2022/09/03 05:42:21;;;;;;;1.87;1.77;;;;;;;15.72;100.00;96104.44;5018551;28;20216;-76
2022/09/03 05:44:48;;;;;;;5.33;2.20;;;;;;;15.72;100.00;96106.34;5000322;28;20231;-74
2022/09/03 05:47:16;;;;;;;2.10;1.90;;;;;;;15.75;100.00;96109.31;5003281;28;20195;-75
2022/09/03 05:49:43;;;;;;;2.73;1.70;;;;;;;15.75;100.00;96106.59;5011702;28;20259;-75
2022/09/03 05:52:10;;;;;;;3.67;1.93;;;;;;;15.78;100.00;96116.97;5028596;28;20203;-74
2022/09/03 05:54:37;;;;;;;2.60;2.40;;;;;;;15.76;100.00;96116.41;5009464;28;20278;-74
2022/09/03 05:57:04;;;;;;;3.07;2.20;;;;;;;15.72;100.00;96112.59;5000292;28;20227;-74
2022/09/03 05:59:32;;;;;;;4.27;2.80;;;;;;;15.73;100.00;96100.63;5002513;28;20211;-74
2022/09/03 06:01:59;;;;;;;4.73;2.50;;;;;;;15.69;100.00;96096.78;5022478;28;20211;-74
2022/09/03 06:04:26;;;;;;;2.40;2.20;;;;;;;15.74;100.00;96098.69;5020569;28;20341;-74
2022/09/03 06:06:53;;;;;;;2.20;2.00;;;;;;;15.76;100.00;96083.75;5005150;28;20295;-74
2022/09/03 06:09:22;;;;;;;2.20;2.00;;;;;;;15.75;100.00;96089.44;5002476;28;20215;-74
2022/09/03 06:11:49;;;;;;;5.00;2.10;;;;;;;15.74;100.00;96087.81;5002770;28;20211;-74
2022/09/03 06:14:16;;;;;;;3.83;2.20;;;;;;;15.80;100.00;96079.41;5004175;28;20239;-74
2022/09/03 06:16:48;;;;;;;2.20;2.00;;;;;;;15.83;100.00;96076.13;5008094;28;20226;-74
2022/09/03 06:19:16;;;;;;;2.93;1.90;;;;;;;15.93;100.00;96067.16;5020785;28;20226;-75
2022/09/03 06:21:45;;;;;;;2.63;1.83;;;;;;;16.09;100.00;96071.53;5015778;28;20262;-74
2022/09/03 06:24:14;;;;;;;2.10;1.60;;;;;;;16.33;100.00;96060.09;5020169;28;20215;-74
2022/09/03 06:26:42;;;;;;;2.10;1.70;;;;;;;16.50;100.00;96055.97;5003449;28;20282;-75
2022/09/03 06:29:09;;;;;;;1.80;1.50;;;;;;;16.65;100.00;96049.72;5003577;28;20204;-74
2022/09/03 06:31:36;;;;;;;3.30;1.87;;;;;;;16.43;100.00;96041.81;5006440;28;20202;-74
2022/09/03 06:34:05;;;;;;;2.47;1.73;;;;;;;16.20;100.00;96031.50;5020409;28;20832;-74
2022/09/03 06:36:32;;;;;;;2.43;1.93;;;;;;;16.18;100.00;96033.66;5002918;28;20214;-74
2022/09/03 06:38:59;;;;;;;2.20;1.90;;;;;;;16.19;100.00;96038.84;5027685;28;20265;-76
2022/09/03 06:41:29;;;;;;;2.90;1.83;;;;;;;16.17;100.00;96032.03;5008403;28;20203;-74
2022/09/03 06:44:01;;;;;;;2.40;2.00;;;;;;;16.20;100.00;96026.03;5006532;28;20215;-74
2022/09/03 06:46:30;;;;;;;2.80;1.80;;;;;;;16.21;100.00;96027.69;5010881;28;20200;-75
2022/09/03 06:48:58;;;;;;;4.33;2.00;;;;;;;16.25;100.00;96020.59;5017942;28;20206;-74
2022/09/03 06:51:28;;;;;;;2.20;2.00;;;;;;;16.29;100.00;96018.97;5016436;28;20250;-74
2022/09/03 06:54:00;;;;;;;2.13;1.70;;;;;;;16.36;100.00;96007.78;5007291;28;20223;-74
2022/09/03 06:56:28;;;;;;;3.20;2.20;;;;;;;16.44;100.00;95999.03;5007938;28;20329;-74
2022/09/03 06:58:56;;;;;;;3.10;2.00;;;;;;;16.58;100.00;95995.47;5008672;28;20210;-74
2022/09/03 07:01:25;;;;;;;2.03;1.83;;;;;;;16.79;100.00;95996.25;5009425;28;20217;-75
2022/09/03 07:03:55;;;;;;;4.47;1.73;;;;;;;16.94;100.00;95981.72;5004680;28;20291;-74
2022/09/03 07:06:24;;;;;;;2.17;1.70;;;;;;;17.05;100.00;95987.97;5008098;28;20218;-74
2022/09/03 07:08:54;;;;;;;5.07;2.43;;;;;;;17.13;100.00;95980.03;5018573;28;20266;-74
2022/09/03 07:11:25;;;;;;;3.97;1.90;;;;;;;17.20;100.00;95977.78;5003146;28;20215;-74
2022/09/03 07:13:54;;;;;;;3.87;1.73;;;;;;;17.28;100.00;95979.13;5016484;28;20234;-74
2022/09/03 07:16:23;;;;;;;2.67;1.80;;;;;;;17.36;100.00;95968.41;5009816;28;20278;-74
2022/09/03 07:18:50;;;;;;;3.73;2.00;;;;;;;17.47;100.00;95971.09;5003815;28;20203;-75
2022/09/03 07:21:19;;;;;;;1.70;1.60;;;;;;;17.62;100.00;95966.38;5016700;28;20213;-74
2022/09/03 07:23:47;;;;;;;2.80;1.70;;;;;;;17.71;100.00;95961.13;5021837;28;20210;-75
2022/09/03 07:26:18;;;;;;;2.63;1.70;;;;;;;17.84;100.00;95968.69;5029906;28;20340;-75
2022/09/03 07:28:45;;;;;;;1.93;1.73;;;;;;;17.95;100.00;95958.50;5015998;28;20211;-74
2022/09/03 07:31:15;;;;;;;1.83;1.70;;;;;;;18.04;100.00;95957.56;5001500;28;20207;-75
2022/09/03 07:33:42;;;;;;;2.53;1.87;;;;;;;18.17;100.00;95953.38;5006639;28;20266;-75
2022/09/03 07:36:13;;;;;;;3.57;1.80;;;;;;;18.32;100.00;95950.47;5028599;28;20223;-75
2022/09/03 07:38:41;;;;;;;3.27;1.70;;;;;;;18.48;100.00;95934.72;5019287;28;20236;-74
2022/09/03 07:41:10;;;;;;;2.27;2.07;;;;;;;18.56;100.00;95930.53;5018106;28;20279;-75
2022/09/03 07:43:39;;;;;;;2.33;2.10;;;;;;;18.70;100.00;95931.53;5008652;28;20206;-74
2022/09/03 07:46:07;;;;;;;2.00;1.80;;;;;;;18.82;100.00;95929.97;4995027;28;20222;-75
2022/09/03 07:48:34;;;;;;;1.70;1.60;;;;;;;18.94;100.00;95926.03;4999895;28;20227;-75
2022/09/03 07:51:01;;;;;;;2.40;1.60;;;;;;;19.04;100.00;95929.44;5020061;28;20203;-76
2022/09/03 07:53:29;;;;;;;1.67;1.57;;;;;;;19.21;100.00;95923.47;5035920;28;20258;-75
2022/09/03 07:56:01;;;;;;;2.10;1.90;;;;;;;19.25;100.00;95910.81;5014410;28;20238;-75
2022/09/03 07:58:30;;;;;;;1.95;1.80;;;;;;;19.30;100.00;95918.16;5019553;28;20219;-74
2022/09/03 08:00:59;;;;;;;3.03;1.80;;;;;;;19.44;100.00;95916.28;5004743;28;20199;-74
2022/09/03 08:03:26;;;;;;;4.22;1.67;;;;;;;19.64;100.00;95905.88;4995353;28;20247;-74
2022/09/03 08:05:54;;;;;;;1.80;1.70;;;;;;;19.72;100.00;95903.56;5027482;28;20199;-75
2022/09/03 08:08:22;;;;;;;3.22;1.80;;;;;;;19.73;100.00;95900.53;5002101;28;20204;-75
2022/09/03 08:10:49;;;;;;;3.80;3.00;;;;;;;19.72;100.00;95898.91;5025767;28;20191;-75
2022/09/03 08:13:16;;;;;;;2.90;2.00;;;;;;;19.75;100.00;95892.00;4993665;28;20254;-75
2022/09/03 08:15:43;;;;;;;3.47;2.03;;;;;;;19.75;100.00;95894.72;5002364;28;20231;-74
2022/09/03 08:18:12;;;;;;;3.65;1.80;;;;;;;19.81;100.00;95901.78;5019533;28;20257;-74
2022/09/03 08:20:39;;;;;;;3.95;1.88;;;;;;;19.98;98.12;95894.63;5000161;28;20200;-74
2022/09/03 08:23:06;;;;;;;3.45;1.80;;;;;;;20.06;95.80;95898.59;5022292;28;20207;-74
2022/09/03 08:25:33;;;;;;;3.13;2.60;;;;;;;20.14;96.94;95892.41;5006898;28;20199;-75
2022/09/03 08:28:00;;;;;;;1.90;1.80;;;;;;;20.21;96.90;95890.09;4999289;28;20211;-75
2022/09/03 08:30:28;;;;;;;3.22;1.90;;;;;;;20.35;97.92;95895.59;5002321;28;20235;-75
2022/09/03 08:32:55;;;;;;;1.75;1.65;;;;;;;20.41;94.88;95896.34;5018770;28;20216;-74
2022/09/03 08:35:24;;;;;;;1.73;1.58;;;;;;;20.65;97.40;95899.72;5021204;28;20231;-75
2022/09/03 08:37:52;;;;;;;4.13;1.88;;;;;;;20.99;99.25;95897.34;5010175;28;20208;-75
2022/09/03 08:40:23;;;;;;;2.30;1.70;;;;;;;21.36;97.64;95892.69;5022107;28;20211;-74
2022/09/03 08:43:10;;;;;;;2.22;1.75;;;;;;;21.55;95.33;95898.84;5003679;28;20200;-75
2022/09/03 08:45:38;;;;;;;1.60;1.50;;;;;;;21.77;93.15;95898.88;5018433;28;20238;-74
2022/09/03 08:48:13;;;;;;;2.33;2.10;;;;;;;22.02;90.83;95896.66;5018412;28;20204;-74
2022/09/03 08:50:45;;;;;;;5.32;2.35;;;;;;;22.44;88.09;95911.78;5016868;28;20258;-76
2022/09/03 08:53:19;;;;;;;3.33;2.00;;;;;;;22.96;82.55;95901.81;5023124;28;20230;-75
2022/09/03 08:55:51;;;;;;;1.77;1.67;;;;;;;23.33;78.02;95909.47;5007304;28;20233;-75
2022/09/03 08:58:20;;;;;;;6.35;1.83;;;;;;;23.54;77.17;95912.47;5004139;28;20207;-75
2022/09/03 09:00:53;;;;;;;1.88;1.63;;;;;;;23.85;72.49;95911.47;5008701;28;20219;-75
2022/09/03 09:03:33;;;;;;;2.25;2.05;;;;;;;23.86;71.01;95907.59;5000569;28;20248;-75
2022/09/03 09:06:10;;;;;;;1.92;1.60;;;;;;;23.83;71.19;95908.22;5019039;28;20215;-74
2022/09/03 09:08:48;;;;;;;1.80;1.70;;;;;;;23.76;77.49;95919.75;5005267;28;20199;-75
2022/09/03 09:11:32;;;;;;;2.35;1.88;;;;;;;23.67;81.45;95921.69;5006471;28;20211;-74
2022/09/03 09:14:04;;;;;;;3.25;1.98;;;;;;;23.65;81.75;95923.94;5020779;28;20203;-75
2022/09/03 09:16:39;;;;;;;2.13;1.92;;;;;;;23.55;80.19;95918.78;5018998;28;20227;-75
2022/09/03 09:19:20;;;;;;;2.38;2.00;;;;;;;23.26;80.84;95911.91;4997784;28;20302;-76
2022/09/03 09:21:52;;;;;;;4.15;1.90;;;;;;;23.30;81.80;95917.59;4998310;28;20215;-75
2022/09/03 09:24:25;;;;;;;3.50;2.10;;;;;;;23.42;81.94;95920.50;4998544;28;20247;-74
2022/09/03 09:26:59;;;;;;;2.25;1.80;;;;;;;23.40;79.98;95912.56;5019013;28;20298;-75
2022/09/03 09:29:29;;;;;;;3.45;2.30;;;;;;;23.50;80.71;95911.47;5018207;28;20220;-75
2022/09/03 09:31:57;;;;;;;2.67;2.13;;;;;;;23.57;77.07;95908.22;5019767;28;20245;-75
2022/09/03 09:34:24;;;;;;;2.60;1.83;;;;;;;23.64;78.66;95911.34;5013124;28;20217;-76
2022/09/03 09:36:55;;;;;;;3.20;2.15;;;;;;;23.38;79.29;95920.38;5015381;28;20223;-74
2022/09/03 09:39:23;;;;;;;2.40;2.10;;;;;;;23.14;78.11;95919.19;5003278;28;20262;-75
2022/09/03 09:42:01;;;;;;;2.13;1.92;;;;;;;22.90;80.58;95925.91;5018753;28;20214;-75
2022/09/03 09:44:29;;;;;;;2.00;1.80;;;;;;;22.64;82.36;95925.78;5003810;28;20257;-75
2022/09/03 09:47:05;;;;;;;2.83;1.80;;;;;;;22.31;82.65;95924.47;5020563;28;20254;-75
2022/09/03 09:49:35;;;;;;;1.88;1.77;;;;;;;22.02;83.32;95941.44;5019710;28;20219;-75
2022/09/03 09:52:07;;;;;;;3.10;2.17;;;;;;;21.76;85.48;95954.16;5021407;28;20233;-75
2022/09/03 09:54:35;;;;;;;3.33;2.03;;;;;;;21.49;87.89;95968.78;5016396;28;20215;-76
2022/09/03 09:57:05;;;;;;;3.20;2.10;;;;;;;21.30;85.39;95976.31;5027476;28;20230;-75
2022/09/03 09:59:33;;;;;;;3.03;2.47;;;;;;;21.24;88.23;95986.63;5019660;28;20208;-75
2022/09/03 10:02:13;;;;;;;2.50;2.30;;;;;;;21.17;88.60;95988.97;5015594;28;20202;-75
2022/09/03 10:04:42;;;;;;;3.58;2.20;;;;;;;21.11;89.82;96001.94;5004522;28;20207;-75
2022/09/03 10:07:24;;;;;;;3.55;2.00;;;;;;;21.10;90.08;96000.31;5001515;28;20301;-75
2022/09/03 10:09:59;;;;;;;2.85;2.10;;;;;;;21.08;91.28;96015.47;5003060;28;20230;-76
2022/09/03 10:12:34;;;;;;;2.33;2.05;;;;;;;21.10;90.03;96030.50;5000658;28;20241;-75
2022/09/03 10:15:11;;;;;;;3.95;2.22;;;;;;;21.05;90.88;96030.63;5025143;28;20301;-75
2022/09/03 10:17:48;;;;;;;3.25;2.20;;;;;;;21.11;91.04;96048.59;4996527;28;20195;-74
2022/09/03 10:20:30;;;;;;;2.97;2.35;;;;;;;21.17;94.98;96054.84;5001650;28;20305;-75
2022/09/03 10:23:05;;;;;;;3.17;2.47;;;;;;;21.23;97.26;96052.81;5021275;28;20209;-75
2022/09/03 10:25:40;;;;;;;2.67;2.38;;;;;;;21.53;96.23;96060.41;5000462;28;20199;-75
2022/09/03 10:28:09;;;;;;;2.30;2.10;;;;;;;21.90;95.90;96059.34;5002190;28;20204;-75
2022/09/03 10:30:55;;;;;;;2.22;1.90;;;;;;;21.87;84.95;96071.78;5002061;28;20216;-76
2022/09/03 10:33:27;;;;;;;1.92;1.70;;;;;;;21.93;82.87;96066.19;5017836;28;20293;-76
2022/09/03 10:36:06;;;;;;;2.03;1.50;;;;;;;22.05;79.65;96069.22;5014697;28;20255;-75
2022/09/03 10:38:36;;;;;;;2.30;1.50;;;;;;;22.10;79.33;96082.88;5019450;28;20247;-75
2022/09/03 10:41:15;;;;;;;1.40;1.30;;;;;;;21.83;80.06;96090.00;5006207;28;20207;-75
2022/09/03 10:44:05;;;;;;;2.00;1.70;;;;;;;21.67;85.14;96096.16;5010823;28;20225;-75
2022/09/03 10:46:43;;;;;;;1.48;1.38;;;;;;;21.54;88.77;96092.28;5016872;28;20279;-76
2022/09/03 10:49:32;;;;;;;3.63;1.63;;;;;;;21.30;88.73;96084.25;5025499;28;20203;-75
2022/09/03 10:52:09;;;;;;;2.65;1.60;;;;;;;20.99;89.61;96081.25;5014197;28;20207;-75
2022/09/03 10:55:01;;;;;;;1.70;1.60;;;;;;;20.85;91.91;96087.81;5010322;28;20212;-75
2022/09/03 10:57:39;;;;;;;1.60;1.50;;;;;;;20.82;90.75;96094.72;5003404;28;20231;-75
2022/09/03 11:00:09;;;;;;;1.70;1.60;;;;;;;20.89;92.22;96102.56;5019592;28;20212;-75
2022/09/03 11:02:56;;;;;;;3.47;1.60;;;;;;;20.83;93.20;96092.81;5014957;28;20270;-75
2022/09/03 11:05:29;;;;;;;1.60;1.50;;;;;;;20.76;95.50;96093.97;5000256;28;20211;-75
2022/09/03 11:08:05;;;;;;;2.28;1.40;;;;;;;20.69;96.64;96109.22;4999060;28;20296;-75
2022/09/03 11:10:39;;;;;;;2.00;1.80;;;;;;;20.59;97.76;96112.94;5018472;28;20221;-75
2022/09/03 11:13:12;;;;;;;1.98;1.80;;;;;;;20.33;99.32;96120.72;5004151;28;20293;-75
2022/09/03 11:15:43;;;;;;;2.60;1.58;;;;;;;20.21;99.84;96125.03;5004818;28;20227;-75
2022/09/03 11:18:18;;;;;;;1.88;1.60;;;;;;;20.07;100.00;96124.97;5001239;28;20204;-75
2022/09/03 11:20:48;;;;;;;1.80;1.70;;;;;;;19.99;100.00;96128.34;5020826;28;20199;-75
2022/09/03 11:23:18;;;;;;;1.92;1.80;;;;;;;19.91;100.00;96121.59;5024577;28;20219;-75
2022/09/03 11:25:52;;;;;;;3.60;2.05;;;;;;;20.00;100.00;96127.25;5006060;28;20200;-75
2022/09/03 11:28:30;;;;;;;1.98;1.70;;;;;;;19.96;100.00;96124.28;5021283;28;20219;-75
2022/09/03 11:31:12;;;;;;;1.80;1.70;;;;;;;20.01;100.00;96134.34;5006416;28;20230;-75
2022/09/03 11:33:45;;;;;;;3.47;1.73;;;;;;;20.10;100.00;96129.03;5020563;28;20215;-75
2022/09/03 11:36:12;;;;;;;2.53;2.08;;;;;;;20.02;100.00;96131.31;5002134;28;20230;-75
2022/09/03 11:38:39;;;;;;;2.80;1.90;;;;;;;19.93;100.00;96132.28;5008139;28;20239;-75
2022/09/03 11:41:14;;;;;;;5.88;2.92;;;;;;;19.90;100.00;96135.63;5013316;28;20210;-75
2022/09/03 11:43:44;;;;;;;4.30;2.72;;;;;;;19.66;100.00;96130.16;5004576;28;20235;-75
2022/09/03 11:46:14;;;;;;;2.40;2.20;;;;;;;19.38;100.00;96131.84;5010452;28;20536;-74